Latest Coastal Weather Observations for Port Pirie Airport AWS***

IDS60701

Issued at 1:05 am CDT Monday 24 November 2014 (issued every 10 minutes, with the page automatically refreshed every 10 minutes)

About coastal observations | Map of coastal stations | Coastal observations for SA | Marine services | Other Formats
Station Details ID: 250006 Name: PORT PIRIE AERODROME AWS Lat: -33.23 Lon: 138.00 Height: 10.0 m
Data from the previous 72 hours. | See also: Recent months for locations in South Australia
Date/Time
CDT
Temp

°C
Wind Pressure Rain
since 9am
mm
Weather Cloud Vis
km
Sea
Height
m
Swell
Dir
 
Speed
knots
Gust
knots
hPa Trend Height
m
Period
s
Dir
24/01:00am 21.5 S 2 3 - - 0.0 - - - - - - -
24/12:30am 21.5 SE 1 3 - - 0.0 - - - - - - -
24/12:00am 22.0 NW 1 2 - - 0.0 - - - - - - -
 
Date/Time
CDT
Temp

°C
Wind Pressure Rain
since 9am
mm
Weather Cloud Vis
km
Sea
Height
m
Swell
Dir
 
Speed
knots
Gust
knots
hPa Trend Height
m
Period
s
Dir
23/11:30pm 22.4 W 1 3 - - 0.0 - - - - - - -
23/11:00pm 22.6 NNW 3 5 - - 0.0 - - - - - - -
23/10:30pm 21.9 NW 2 5 - - 0.0 - - - - - - -
23/10:00pm 23.4 WNW 3 5 - - 0.0 - - - - - - -
23/09:30pm 23.1 N 3 8 - - 0.0 - - - - - - -
23/09:00pm 25.0 WNW 1 2 - - 0.0 - - - - - - -
23/08:30pm 26.5 WSW 3 4 - - 0.0 - - - - - - -
23/08:00pm 29.3 SW 3 5 - - 0.0 - - - - - - -
23/07:30pm 30.6 SW 3 6 - - 0.0 - - - - - - -
23/07:00pm 31.2 S 5 7 - - 0.0 - - - - - - -
23/06:30pm 31.5 S 6 9 - - 0.0 - - - - - - -
23/06:00pm 30.9 S 6 10 - - 0.0 - - - - - - -
23/05:30pm 30.7 S 7 11 - - 0.0 - - - - - - -
23/05:00pm 29.1 SSW 8 12 - - 0.0 - - - - - - -
23/04:30pm 27.9 SW 8 15 - - 0.0 - - - - - - -
23/04:00pm 26.3 SSW 3 7 - - 0.0 - - - - - - -
23/03:30pm 26.3 NW 2 - - - - - - - - - - -
23/03:00pm 25.9 NNE 6 9 - - 0.0 - - - - - - -
23/02:30pm 26.3 NNW 9 13 - - 0.0 - - - - - - -
23/02:00pm 28.3 WNW 3 5 - - 0.0 - - - - - - -
23/01:30pm 27.7 SW 5 9 - - 0.0 - - - - - - -
23/01:00pm 28.3 W 5 10 - - 0.0 - - - - - - -
23/12:30pm 27.6 WSW 9 13 - - 0.0 - - - - - - -
23/12:00pm 29.5 W 4 8 - - 0.0 - - - - - - -
23/11:30am 29.1 WNW 4 6 - - 0.0 - - - - - - -
23/11:00am 28.4 NNW 3 7 - - 0.0 - - - - - - -
23/10:30am 27.6 N 4 7 - - 0.0 - - - - - - -
23/10:00am 28.5 NNE 5 9 - - 0.0 - - - - - - -
23/09:30am 29.0 E 6 9 - - 0.0 - - - - - - -
23/09:00am 26.7 SSE 7 10 - - 0.0 - - - - - - -
23/08:30am 22.5 SSE 8 11 - - 0.0 - - - - - - -
23/08:00am 20.1 SSE 10 14 - - 0.0 - - - - - - -
23/07:30am 18.3 SSE 7 11 - - 0.0 - - - - - - -
23/07:00am 15.5 SSE 6 9 - - 0.0 - - - - - - -
23/06:30am 13.5 SSE 6 8 - - 0.0 - - - - - - -
23/06:00am 12.5 ESE 3 5 - - 0.0 - - - - - - -
23/05:30am 13.4 S 7 10 - - 0.0 - - - - - - -
23/05:00am 13.5 SSW 6 8 - - 0.0 - - - - - - -
23/04:30am 13.7 SSW 5 6 - - 0.0 - - - - - - -
23/04:00am 13.6 S 6 7 - - 0.0 - - - - - - -
23/03:30am 13.8 S 4 5 - - 0.0 - - - - - - -
23/03:00am 15.2 SSW 2 3 - - 0.0 - - - - - - -
23/02:30am 14.6 SSE 3 4 - - 0.0 - - - - - - -
23/02:00am 16.0 SSE 3 4 - - 0.0 - - - - - - -
23/01:30am 16.4 SSW 7 9 - - 0.0 - - - - - - -
23/01:00am 17.3 S 6 8 - - 0.0 - - - - - - -
23/12:30am 18.1 S 6 8 - - 0.0 - - - - - - -
23/12:00am 18.8 S 7 9 - - 0.0 - - - - - - -
 
Date/Time
CDT
Temp

°C
Wind Pressure Rain
since 9am
mm
Weather Cloud Vis
km
Sea
Height
m
Swell
Dir
 
Speed
knots
Gust
knots
hPa Trend Height
m
Period
s
Dir
22/11:30pm 19.9 S 7 11 - - 0.0 - - - - - - -
22/11:00pm 20.6 S 8 11 - - 0.0 - - - - - - -
22/10:30pm 20.8 SSW 7 9 - - 0.0 - - - - - - -
22/10:00pm 21.9 SSW 9 12 - - 0.0 - - - - - - -
22/09:30pm 22.5 SSW 11 14 - - 0.0 - - - - - - -
22/09:00pm 23.1 SSW 14 18 - - 0.0 - - - - - - -
22/08:30pm 23.8 SSW 11 15 - - 0.0 - - - - - - -
22/08:00pm 24.8 SSW 13 17 - - 0.0 - - - - - - -
22/07:30pm 27.1 SSW 15 22 - - 0.0 - - - - - - -
22/07:00pm 28.4 SSW 17 25 - - 0.0 - - - - - - -
22/06:30pm 28.5 SSW 19 26 - - 0.0 - - - - - - -
22/06:00pm 29.0 SSW 20 27 - - 0.0 - - - - - - -
22/05:30pm 30.6 SSW 21 28 - - 0.0 - - - - - - -
22/05:00pm 31.0 SW 21 28 - - 0.0 - - - - - - -
22/04:42pm 31.3 SW 21 31 - - 0.0 - - - - - - -
22/04:30pm 32.0 SW 21 28 - - 0.0 - - - - - - -
22/04:00pm 33.3 SW 19 25 - - 0.0 - - - - - - -
22/03:30pm 33.5 SW 20 26 - - 0.0 - - - - - - -
22/03:22pm 32.7 SW 16 26 - - 0.0 - - - - - - -
22/03:00pm 36.3 SW 11 18 - - 0.0 - - - - - - -
22/02:30pm 35.8 SSW 11 17 - - 0.0 - - - - - - -
22/02:00pm 35.5 SW 11 17 - - 0.0 - - - - - - -
22/01:30pm 34.4 SW 9 16 - - 0.0 - - - - - - -
22/01:00pm 33.8 WSW 5 8 - - 0.0 - - - - - - -
22/12:30pm 32.8 SSW 10 14 - - 0.0 - - - - - - -
22/12:00pm 32.5 WSW 8 15 - - 0.0 - - - - - - -
22/11:30am 32.0 WSW 6 11 - - 0.0 - - - - - - -
22/11:00am 32.3 WSW 7 11 - - 0.0 - - - - - - -
22/10:30am 31.9 W 6 14 - - 0.0 - - - - - - -
22/10:00am 32.0 W 7 16 - - 0.0 - - - - - - -
22/09:30am 30.4 NW 10 14 - - 0.0 - - - - - - -
22/09:00am 30.0 NNW 6 13 - - 0.2 - - - - - - -
22/08:30am 28.3 N 5 10 - - 0.2 - - - - - - -
22/08:00am 27.4 NNW 6 9 - - 0.2 - - - - - - -
22/07:30am 26.5 WNW 4 7 - - 0.2 - - - - - - -
22/07:00am 25.1 NW 3 7 - - 0.2 - - - - - - -
22/06:30am 25.8 NNE 8 13 - - 0.2 - - - - - - -
22/06:18am 24.6 NNE 5 9 - - 0.2 - - - - - - -
22/06:00am 19.2 NE 3 3 - - 0.2 - - - - - - -
22/05:30am 18.8 NE 1 2 - - 0.2 - - - - - - -
22/05:00am 18.5 NE 2 2 - - 0.2 - - - - - - -
22/04:30am 19.0 SW 1 2 - - 0.2 - - - - - - -
22/04:00am 18.5 SSW 2 3 - - 0.2 - - - - - - -
22/03:30am 19.9 NNW 1 2 - - 0.2 - - - - - - -
22/03:00am 19.7 ENE 2 2 - - 0.2 - - - - - - -
22/02:30am 19.6 E 2 3 - - 0.2 - - - - - - -
22/02:00am 21.1 N 2 4 - - 0.2 - - - - - - -
22/01:43am 21.0 ENE 7 11 - - 0.2 - - - - - - -
22/01:30am 15.8 E 5 7 - - 0.2 - - - - - - -
22/01:00am 16.9 SE 4 6 - - 0.2 - - - - - - -
22/12:30am 17.4 SSE 4 5 - - 0.2 - - - - - - -
22/12:00am 17.9 SE 3 5 - - 0.2 - - - - - - -
 
Date/Time
CDT
Temp

°C
Wind Pressure Rain
since 9am
mm
Weather Cloud Vis
km
Sea
Height
m
Swell
Dir
 
Speed
knots
Gust
knots
hPa Trend Height
m
Period
s
Dir
21/11:30pm 18.8 ENE 1 2 - - 0.2 - - - - - - -
21/11:00pm 18.0 E 5 6 - - 0.2 - - - - - - -
21/10:30pm 19.1 E 5 6 - - 0.2 - - - - - - -
21/10:00pm 19.4 ESE 5 5 - - 0.2 - - - - - - -
21/09:30pm 20.8 SE 4 5 - - 0.2 - - - - - - -
21/09:00pm 21.6 SE 4 5 - - 0.2 - - - - - - -
21/08:30pm 23.2 SSE 5 6 - - 0.2 - - - - - - -
21/08:00pm 25.4 S 5 6 - - 0.2 - - - - - - -
21/07:30pm 28.1 SSE 5 7 - - 0.2 - - - - - - -
21/07:00pm 29.3 S 5 8 - - 0.2 - - - - - - -
21/06:30pm 29.6 S 4 8 - - 0.2 - - - - - - -
21/06:00pm 29.8 S 5 10 - - 0.2 - - - - - - -
21/05:30pm 30.0 S 4 7 - - 0.2 - - - - - - -
21/05:00pm 30.0 W 2 5 - - 0.2 - - - - - - -
21/04:30pm 29.6 SE 3 9 - - 0.2 - - - - - - -
21/04:00pm 29.1 S 4 8 - - 0.2 - - - - - - -
21/03:30pm 28.6 E 2 5 - - 0.2 - - - - - - -
21/03:00pm 28.0 ESE 3 6 - - 0.2 - - - - - - -
21/02:30pm 27.1 SSW 5 9 - - 0.2 - - - - - - -
21/02:00pm 26.1 WSW 4 8 - - 0.2 - - - - - - -
21/01:30pm 26.0 W 3 8 - - 0.2 - - - - - - -
21/01:00pm 24.8 SW 2 6 - - 0.2 - - - - - - -
21/12:30pm 24.6 S 3 7 - - 0.2 - - - - - - -
21/12:00pm 24.0 WSW 2 5 - - 0.2 - - - - - - -
21/11:30am 22.9 WNW 3 8 - - 0.2 - - - - - - -
21/11:00am 22.7 NW 3 7 - - 0.2 - - - - - - -
21/10:30am 21.3 NNW 2 6 - - 0.2 - - - - - - -
21/10:00am 20.4 N 2 6 - - 0.2 - - - - - - -
21/09:30am 19.3 ENE 2 5 - - 0.0 - - - - - - -
21/09:00am 19.2 SE 3 9 - - 9.6 - - - - - - -
21/08:30am 18.7 E 6 9 - - 9.6 - - - - - - -
21/08:00am 17.8 ESE 7 9 - - 9.6 - - - - - - -
21/07:30am 16.6 ESE 6 9 - - 9.6 - - - - - - -
21/07:00am 15.2 S 5 7 - - 9.6 - - - - - - -
21/06:30am 14.3 SSW 5 7 - - 9.6 - - - - - - -
21/06:00am 14.4 S 2 3 - - 9.6 - - - - - - -
21/05:30am 15.2 S 3 4 - - 9.6 - - - - - - -
21/05:00am 16.2 S 5 7 - - 9.6 - - - - - - -
21/04:30am 16.6 S 6 8 - - 9.6 - - - - - - -
21/04:00am 16.8 SSE 4 6 - - 9.6 - - - - - - -
21/03:30am 17.0 S 4 5 - - 9.6 - - - - - - -
21/03:00am 17.0 S 4 6 - - 9.6 - - - - - - -
21/02:30am 17.2 S 4 6 - - 9.6 - - - - - - -
21/02:00am 17.2 S 5 7 - - 9.6 - - - - - - -
21/01:30am 17.3 S 3 4 - - 9.6 - - - - - - -

Other Formats:

Comma delimited format used in spreadsheet applications
http://www.bom.gov.au/fwo/IDS60701/IDS60701.99001.axf

JavaScript Object Notation format (JSON) in row-major order
http://www.bom.gov.au/fwo/IDS60701/IDS60701.99001.json